Time;durP1;ratioP1;P1;durP2;ratioP2;P2;SDS_P1;SDS_P2;PMS_P1;PMS_P2;Temp;Humidity;BMP_temperature;BMP_pressure;BME280_temperature;BME280_humidity;BME280_pressure;Samples;Min_cycle;Max_cycle;Signal;HPM_P1;HPM_P2
2021/09/19 00:21:22;;;;;;;11.95;7.82;;;9.30;99.90;;;;;;6182088;23;20391;-95
2021/09/19 00:25:10;;;;;;;8.98;7.07;;;9.30;99.90;;;;;;6177918;23;20450;-96
2021/09/19 00:28:18;;;;;;;9.00;6.95;;;9.20;99.90;;;;;;6111143;23;20536;-96
2021/09/19 00:35:27;;;;;;;10.70;8.95;;;9.10;99.90;;;;;;6156974;23;20422;-96
2021/09/19 00:41:42;;;;;;;9.40;7.18;;;9.30;99.90;;;;;;6012981;23;20510;-96
2021/09/19 00:48:15;;;;;;;9.77;7.95;;;9.30;99.90;;;;;;5932448;24;20433;-96
2021/09/19 00:51:07;;;;;;;;;;;;;;;;;;;;;
2021/09/19 00:53:51;;;;;;;;;;;;;;;;;;;;;
2021/09/19 00:57:04;;;;;;;;;;;;;;;;;;;;;
2021/09/19 01:00:33;;;;;;;8.52;6.90;;;9.20;99.90;;;;;;5824289;24;20387;-96
2021/09/19 01:03:21;;;;;;;12.20;8.15;;;9.20;99.90;;;;;;5875745;24;20435;-96
2021/09/19 01:05:59;;;;;;;10.13;7.80;;;9.20;99.90;;;;;;5878800;24;20393;-96
2021/09/19 01:08:58;;;;;;;11.10;8.30;;;9.20;99.90;;;;;;5878354;24;20798;-95
2021/09/19 01:11:48;;;;;;;9.55;7.85;;;9.30;99.90;;;;;;5885060;24;20450;-96
2021/09/19 01:26:37;;;;;;;13.83;7.30;;;9.00;99.90;;;;;;4540088;27;15823279;-96
2021/09/19 01:29:28;;;;;;;12.35;9.40;;;8.90;99.90;;;;;;5057908;28;20895;-96
2021/09/19 01:32:29;;;;;;;11.43;8.70;;;9.00;99.90;;;;;;5058366;28;20459;-96
2021/09/19 01:35:49;;;;;;;10.43;9.23;;;9.00;99.90;;;;;;4960336;28;20417;-94
2021/09/19 01:38:30;;;;;;;13.10;8.77;;;9.00;99.90;;;;;;4954608;28;20508;-96
2021/09/19 01:41:43;;;;;;;8.40;7.20;;;9.00;99.90;;;;;;4957326;28;20508;-95
2021/09/19 01:44:47;;;;;;;11.77;8.88;;;9.00;99.90;;;;;;4915256;29;20601;-96
2021/09/19 01:47:30;;;;;;;10.88;8.88;;;8.90;99.90;;;;;;4902029;29;20434;-95
2021/09/19 01:50:24;;;;;;;10.63;8.98;;;8.90;99.90;;;;;;4901475;29;20444;-94
2021/09/19 01:53:43;;;;;;;14.32;9.98;;;9.00;99.90;;;;;;4958285;28;20445;-96
2021/09/19 01:56:47;;;;;;;16.15;11.90;;;8.90;99.90;;;;;;4993608;28;20421;-96
2021/09/19 01:59:38;;;;;;;15.95;11.15;;;8.90;99.90;;;;;;5007227;28;20426;-95
2021/09/19 02:02:48;;;;;;;13.55;9.75;;;9.00;99.90;;;;;;5059763;28;20428;-95
2021/09/19 02:05:33;;;;;;;16.58;11.77;;;8.90;99.90;;;;;;5057904;28;20993;-94
2021/09/19 02:08:36;;;;;;;16.05;12.10;;;8.80;99.90;;;;;;5050955;28;20419;-95
2021/09/19 02:11:22;;;;;;;15.70;11.85;;;8.80;99.90;;;;;;5037788;28;20452;-95
2021/09/19 02:14:16;;;;;;;20.08;13.77;;;8.80;99.90;;;;;;5022610;28;20974;-96
2021/09/19 02:17:27;;;;;;;25.65;15.98;;;8.90;99.90;;;;;;5093261;22;20380;31
2021/09/19 02:20:36;;;;;;;22.77;14.75;;;8.80;99.90;;;;;;5056933;28;20519;-95
2021/09/19 02:24:00;;;;;;;20.60;14.57;;;8.80;99.90;;;;;;5058691;28;20455;-95
2021/09/19 02:27:02;;;;;;;20.77;14.13;;;8.90;99.90;;;;;;5012233;28;20461;-96
2021/09/19 02:30:55;;;;;;;18.35;13.63;;;9.00;99.90;;;;;;5005040;28;20561;-96
2021/09/19 02:48:48;;;;;;;19.00;13.55;;;8.90;99.90;;;;;;5046875;28;20412;-96
2021/09/19 02:54:25;;;;;;;16.52;12.10;;;8.90;99.90;;;;;;5229040;22;20425;-95
2021/09/19 02:57:40;;;;;;;18.33;11.98;;;8.90;99.90;;;;;;5101210;28;20493;-95
2021/09/19 03:00:50;;;;;;;14.85;11.05;;;8.80;99.90;;;;;;5063609;28;20747;-96
2021/09/19 03:03:57;;;;;;;14.35;11.27;;;8.90;99.90;;;;;;5087516;22;20491;-96
2021/09/19 03:07:03;;;;;;;15.82;11.93;;;8.90;99.90;;;;;;4978745;28;20424;-96
2021/09/19 03:10:23;;;;;;;14.50;11.63;;;8.90;99.90;;;;;;4965532;28;20420;-96
2021/09/19 03:26:14;;;;;;;17.23;12.05;;;8.50;99.90;;;;;;5057261;28;20435;-96
2021/09/19 03:41:33;;;;;;;;;;;;;;;;;;;;;
2021/09/19 03:45:17;;;;;;;17.35;12.35;;;8.40;99.90;;;;;;4960395;29;20448;-96
2021/09/19 04:51:32;;;;;;;153.03;22.10;;;8.20;99.90;;;;;;4999242;28;20435;-95
2021/09/19 04:54:25;;;;;;;134.68;19.50;;;8.20;99.90;;;;;;4958202;28;20426;-95
2021/09/19 04:57:06;;;;;;;61.38;18.30;;;8.30;99.90;;;;;;4985701;28;20429;-96
2021/09/19 04:59:36;;;;;;;162.90;19.40;;;8.30;99.90;;;;;;4978938;28;20433;-94
2021/09/19 05:02:04;;;;;;;41.97;14.55;;;8.30;99.90;;;;;;4982252;28;20461;-94
2021/09/19 05:04:31;;;;;;;33.95;17.40;;;8.30;99.90;;;;;;5000823;28;20439;-93
2021/09/19 05:06:59;;;;;;;189.25;24.30;;;8.30;99.90;;;;;;5000487;28;20398;-95
2021/09/19 05:09:31;;;;;;;222.98;24.20;;;8.30;99.90;;;;;;4995733;28;20434;-95
2021/09/19 05:12:05;;;;;;;157.57;23.33;;;8.30;99.90;;;;;;4993279;28;20477;-95
2021/09/19 05:17:38;;;;;;;216.82;24.65;;;8.30;99.90;;;;;;5003727;28;20457;-95
2021/09/19 05:20:13;;;;;;;142.60;20.73;;;8.40;99.90;;;;;;4983676;28;20422;-96
2021/09/19 05:22:51;;;;;;;105.60;20.15;;;8.50;99.90;;;;;;4983412;28;20441;-95
2021/09/19 05:25:37;;;;;;;61.35;18.90;;;8.60;99.90;;;;;;4983733;28;20449;-96
2021/09/19 05:28:08;;;;;;;38.20;18.98;;;8.60;99.90;;;;;;4981361;28;20426;-95
2021/09/19 05:30:42;;;;;;;40.33;21.48;;;8.60;99.90;;;;;;4984028;28;20450;-96
2021/09/19 05:33:22;;;;;;;43.40;22.67;;;8.70;99.90;;;;;;4986843;28;20410;-95
2021/09/19 05:35:53;;;;;;;44.83;23.90;;;8.60;99.90;;;;;;4983270;28;20596;-96
2021/09/19 05:38:26;;;;;;;42.60;22.95;;;8.60;99.90;;;;;;4984370;28;20426;-94
2021/09/19 05:41:05;;;;;;;41.33;22.50;;;8.70;99.90;;;;;;4988657;28;20446;-95
2021/09/19 05:44:07;;;;;;;37.63;20.98;;;8.80;99.90;;;;;;4990022;28;20402;-95
2021/09/19 05:46:52;;;;;;;30.23;18.38;;;8.80;99.90;;;;;;4986584;28;20565;-95
2021/09/19 05:49:46;;;;;;;26.92;17.55;;;8.90;99.90;;;;;;5003778;28;20461;-96
2021/09/19 05:52:56;;;;;;;20.40;15.37;;;9.10;99.90;;;;;;5811476;22;20445;-95
2021/09/19 05:55:46;;;;;;;21.77;14.48;;;9.20;99.90;;;;;;5005979;28;20449;-96
2021/09/19 06:28:10;;;;;;;11.30;9.88;;;10.80;99.90;;;;;;5534814;23;20433;-94
2021/09/19 06:42:39;;;;;;;13.75;8.50;;;11.00;99.90;;;;;;5988513;23;20355;-92
2021/09/19 07:31:26;;;;;;;11.70;6.13;;;12.40;99.90;;;;;;5328331;22;20581;-94
2021/09/19 07:34:01;;;;;;;11.52;6.32;;;12.70;99.90;;;;;;5023286;28;20427;-96
2021/09/19 07:37:17;;;;;;;;;;;;;;;;;;;;;
2021/09/19 07:40:27;;;;;;;11.52;6.10;;;13.40;99.90;;;;;;4978636;28;20424;-96
2021/09/19 07:43:50;;;;;;;19.07;6.33;;;13.70;99.90;;;;;;4906575;29;20455;-96
2021/09/19 08:45:13;;;;;;;3.17;2.40;;;16.20;99.90;;;;;;5020351;28;20582;-95
2021/09/19 08:47:43;;;;;;;3.72;2.10;;;16.70;99.90;;;;;;5026098;23;20934;-95
2021/09/19 08:50:11;;;;;;;3.92;2.45;;;16.90;99.90;;;;;;5020818;28;20485;-96
2021/09/19 08:52:46;;;;;;;3.03;2.55;;;16.70;99.90;;;;;;5019874;28;21065;-94
2021/09/19 09:11:43;;;;;;;9.00;2.22;;;15.90;99.90;;;;;;4995629;28;20424;-96
2021/09/19 09:14:59;;;;;;;8.10;2.60;;;16.10;99.90;;;;;;4984492;28;20418;-96
2021/09/19 09:17:42;;;;;;;2.10;1.90;;;16.30;99.90;;;;;;4996271;28;20454;-96
2021/09/19 09:20:22;;;;;;;1.77;1.60;;;16.20;99.90;;;;;;4981179;28;20450;-96
2021/09/19 09:23:52;;;;;;;8.00;2.05;;;16.30;99.90;;;;;;5056419;22;20423;-96
2021/09/19 09:26:42;;;;;;;2.20;1.75;;;16.10;99.90;;;;;;4959777;28;20447;-96
2021/09/19 09:29:23;;;;;;;5.63;1.88;;;16.20;99.90;;;;;;4960233;28;20455;-95
2021/09/19 09:31:54;;;;;;;2.17;1.88;;;16.20;99.90;;;;;;4963395;28;20455;-94
2021/09/19 09:34:31;;;;;;;2.75;1.80;;;16.50;99.90;;;;;;4979854;28;20470;-96
2021/09/19 09:43:08;;;;;;;2.25;1.90;;;16.40;99.90;;;;;;4981249;28;20876;-90
2021/09/19 09:45:38;;;;;;;1.85;1.70;;;16.60;99.90;;;;;;4959967;28;20452;-93
2021/09/19 09:48:28;;;;;;;1.70;1.50;;;16.70;99.90;;;;;;4963385;28;20431;-92
2021/09/19 09:50:57;;;;;;;1.90;1.70;;;17.00;99.90;;;;;;4962103;28;20855;-94
2021/09/19 09:53:40;;;;;;;2.20;1.90;;;17.00;99.90;;;;;;4949539;28;20424;-95
2021/09/19 09:56:08;;;;;;;2.42;1.70;;;17.10;99.90;;;;;;4962366;28;20510;-94
2021/09/19 09:58:56;;;;;;;1.77;1.67;;;17.40;99.90;;;;;;4968947;28;20491;-96
2021/09/19 10:02:01;;;;;;;2.35;1.85;;;17.70;99.90;;;;;;4993150;28;20431;-92
2021/09/19 10:04:56;;;;;;;3.42;1.63;;;17.60;99.90;;;;;;4983889;28;20428;-96
2021/09/19 10:29:55;;;;;;;1.70;1.60;;;17.20;99.90;;;;;;1117875;22;22056;31
2021/09/19 10:32:41;;;;;;;3.70;1.53;;;17.20;99.90;;;;;;5007633;28;20431;-95
2021/09/19 10:35:34;;;;;;;1.55;1.45;;;17.30;99.90;;;;;;4995425;28;20396;-94
2021/09/19 10:39:12;;;;;;;1.60;1.50;;;17.20;99.90;;;;;;5010906;28;20424;-96
2021/09/19 10:55:28;;;;;;;2.10;1.63;;;17.30;99.90;;;;;;6111475;22;20405;-96
2021/09/19 10:57:57;;;;;;;2.42;1.38;;;17.60;99.90;;;;;;5000384;28;20437;-96
2021/09/19 11:00:35;;;;;;;1.43;1.33;;;17.80;99.90;;;;;;4998596;28;20427;-94
2021/09/19 11:03:14;;;;;;;2.00;1.80;;;18.00;99.90;;;;;;5000479;28;20450;-92
2021/09/19 11:05:53;;;;;;;9.63;1.70;;;17.90;99.90;;;;;;5002015;28;20450;-93
2021/09/19 11:08:35;;;;;;;2.35;1.55;;;18.10;99.90;;;;;;5019192;28;20414;-95
2021/09/19 11:11:10;;;;;;;1.58;1.33;;;18.20;99.90;;;;;;5018003;28;20426;-95
2021/09/19 11:14:04;;;;;;;3.33;1.58;;;18.30;99.90;;;;;;5007580;28;20431;-93
2021/09/19 11:16:52;;;;;;;1.47;1.20;;;18.30;99.90;;;;;;5007706;28;20427;-93
2021/09/19 11:19:22;;;;;;;1.47;1.20;;;18.20;99.90;;;;;;5007061;28;20426;-93
2021/09/19 11:21:49;;;;;;;1.50;1.35;;;18.50;99.90;;;;;;5008882;28;20409;-95
2021/09/19 11:24:19;;;;;;;3.03;1.50;;;18.80;99.90;;;;;;5018439;28;20437;-94
2021/09/19 11:26:51;;;;;;;1.60;1.50;;;19.00;99.90;;;;;;5012159;28;20514;-96
2021/09/19 11:29:24;;;;;;;2.00;1.40;;;18.90;99.90;;;;;;5002146;28;20422;-94
2021/09/19 11:31:55;;;;;;;1.67;1.40;;;18.90;99.90;;;;;;4997885;28;20423;-94
2021/09/19 11:34:24;;;;;;;1.50;1.30;;;18.80;99.90;;;;;;4995712;28;20458;-95
2021/09/19 11:37:08;;;;;;;1.50;1.27;;;18.90;99.90;;;;;;4998033;28;20436;-96
2021/09/19 11:39:38;;;;;;;5.40;1.40;;;18.80;99.90;;;;;;4997467;28;20981;-95
2021/09/19 11:42:12;;;;;;;3.00;1.52;;;18.80;99.90;;;;;;4996775;28;20418;-95
2021/09/19 11:44:48;;;;;;;1.30;1.20;;;18.80;99.90;;;;;;5000166;28;20427;-96
2021/09/19 11:51:20;;;;;;;3.72;1.20;;;18.70;99.90;;;;;;4929491;28;20703;-92
2021/09/19 11:54:00;;;;;;;1.63;1.20;;;19.00;99.90;;;;;;4918240;29;20440;-94
2021/09/19 11:56:32;;;;;;;2.00;1.30;;;19.20;99.90;;;;;;4915725;29;20437;-96
2021/09/19 11:59:04;;;;;;;1.30;1.20;;;19.00;99.90;;;;;;4910059;29;20425;-96
2021/09/19 12:01:47;;;;;;;1.40;1.10;;;19.20;99.90;;;;;;4915022;29;20829;-96
2021/09/19 12:04:45;;;;;;;2.00;1.20;;;19.60;99.90;;;;;;4913760;29;20441;-92
2021/09/19 12:07:50;;;;;;;5.72;1.20;;;20.00;99.90;;;;;;4925024;28;20441;-92
2021/09/19 14:27:14;;;;;;;3.72;1.67;;;22.50;92.20;;;;;;5013711;28;20430;-93
2021/09/19 14:30:39;;;;;;;1.77;1.30;;;22.10;92.30;;;;;;4948137;29;20467;-91
2021/09/19 14:33:42;;;;;;;2.50;1.50;;;22.00;93.30;;;;;;4957131;29;20530;-93
2021/09/19 14:41:33;;;;;;;3.43;1.37;;;22.00;93.30;;;;;;5053988;28;20418;-92
2021/09/19 14:45:00;;;;;;;2.67;1.50;;;22.20;92.90;;;;;;4978215;28;20413;-91
2021/09/19 14:48:39;;;;;;;3.45;1.58;;;21.60;93.70;;;;;;4917950;29;20414;-93
2021/09/19 15:01:22;;;;;;;2.40;1.42;;;22.20;92.90;;;;;;5031978;28;20435;-93
2021/09/19 15:05:04;;;;;;;2.42;1.50;;;21.90;93.10;;;;;;5028797;28;20451;-91
2021/09/19 15:08:42;;;;;;;1.67;1.42;;;21.70;93.00;;;;;;4950204;28;20463;-92
2021/09/19 15:11:33;;;;;;;2.47;1.63;;;21.10;94.40;;;;;;4943443;28;20428;-91
2021/09/19 15:17:47;;;;;;;5.43;2.00;;;20.20;93.90;;;;;;5861483;22;20412;-92
2021/09/19 16:13:36;;;;;;;2.60;1.98;;;17.20;99.90;;;;;;5451639;22;20495;-92
2021/09/19 16:20:49;;;;;;;3.23;2.10;;;15.10;99.90;;;;;;5054265;28;20459;-92
2021/09/19 16:38:18;;;;;;;3.65;2.80;;;12.60;99.90;;;;;;5009024;28;20414;-91
2021/09/19 16:41:05;;;;;;;4.50;2.80;;;12.30;99.90;;;;;;4997732;28;20414;-96
2021/09/19 16:43:34;;;;;;;3.33;2.58;;;12.00;99.90;;;;;;5002465;28;20428;-96
2021/09/19 16:46:02;;;;;;;4.70;2.95;;;11.80;99.90;;;;;;4996648;28;20430;-96
2021/09/19 16:48:36;;;;;;;4.38;3.00;;;11.80;99.90;;;;;;4999585;28;20937;-96
2021/09/19 16:51:21;;;;;;;3.88;2.92;;;11.80;99.90;;;;;;4996294;28;20442;-96
2021/09/19 16:53:49;;;;;;;6.15;3.10;;;11.60;99.90;;;;;;4998670;28;20933;-96
2021/09/19 16:56:22;;;;;;;4.38;3.17;;;11.70;99.90;;;;;;4996020;28;20418;-96
2021/09/19 16:59:22;;;;;;;;;;;;;;;;;;;;;
2021/09/19 17:02:06;;;;;;;3.50;3.17;;;11.60;99.90;;;;;;5000875;28;20422;-96
2021/09/19 17:04:50;;;;;;;;;;;;;;;;;;;;;
2021/09/19 17:07:35;;;;;;;9.82;3.60;;;11.60;99.90;;;;;;4998390;28;20798;-94
2021/09/19 17:10:21;;;;;;;8.23;2.80;;;11.50;99.90;;;;;;4997712;28;20427;-96
2021/09/19 17:13:02;;;;;;;4.33;3.17;;;11.40;99.90;;;;;;5003239;28;20421;-95
2021/09/19 17:15:35;;;;;;;5.65;3.25;;;11.40;99.90;;;;;;5002433;28;20478;-96
2021/09/19 17:19:02;;;;;;;;;;;;;;;;;;;;;
2021/09/19 17:29:13;;;;;;;;;;;;;;;;;;;;;
2021/09/19 18:13:20;;;;;;;6.13;3.83;;;10.40;99.90;;;;;;5227218;23;20459;-96
2021/09/19 18:16:31;;;;;;;4.80;3.60;;;10.40;99.90;;;;;;4999430;28;20404;-96
2021/09/19 20:12:36;;;;;;;;;;;;;;;;;;;;;
2021/09/19 20:19:33;;;;;;;6.03;3.78;;;9.90;99.90;;;;;;4840771;29;20413;-94
2021/09/19 21:15:45;;;;;;;11.00;8.40;;;9.50;99.90;;;;;;6046275;23;20914;-94
2021/09/19 21:18:12;;;;;;;10.50;8.80;;;9.50;99.90;;;;;;5034830;28;20448;-96
2021/09/19 23:31:54;;;;;;;17.52;14.82;;;9.10;99.90;;;;;;6102246;23;20383;31
